Impacts METAR Board INFO
IDs:

KLGA - New York/La Guardia, NY, US

Updated at: 0552 UTC 22 Jan 2018
Potential Impact None Slight Moderate High
Time21/17Z 21/18Z 21/19Z 21/20Z 21/21Z 21/22Z 21/23Z 22/00Z 22/01Z 22/02Z 22/03Z 22/04Z 22/05Z
VIS10 10 10 10 10 10 10 10 10 10 10 10 10
CIG250 250 250 250 250 250 40 45 34 35 38 41 41
CoverBKNBKNBKNBKNBKNBKNBKNBKNOVCOVCOVCOVCOVC
FltCatVFRVFRVFRVFRVFRVFRVFRVFRVFRVFRVFRVFRVFR
WX--------------------------
WDir310320320320100609018018019017080
WSpd6 4 4 3 3 0 4 6 6 7 5 4 3
WGst-- -- -- -- -- -- -- -- -- -- -- -- --
Raw hourly METARs
KLGA 211651Z 31006KT 10SM SCT200 BKN250 08/M02 A3017 RMK AO2 SLP215 T00831017
KLGA 211751Z 32004KT 10SM FEW200 BKN250 09/M02 A3014 RMK AO2 SLP207 T00891017 10094 20056 58013
KLGA 211851Z 32004KT 10SM FEW200 BKN250 10/M02 A3013 RMK AO2 SLP203 T01001017
KLGA 211951Z 32003KT 10SM FEW090 SCT200 BKN250 11/M02 A3013 RMK AO2 SLP202 T01111017
KLGA 212051Z 01003KT 10SM SCT065 BKN250 09/M01 A3013 RMK AO2 SLP201 T00891011 56005
KLGA 212151Z 00000KT 10SM FEW075 BKN250 09/M02 A3014 RMK AO2 SLP206 T00941017
KLGA 212251Z 06004KT 10SM BKN040 BKN080 BKN250 10/M01 A3016 RMK AO2 SLP213 T01001011
KLGA 212351Z 09006KT 10SM BKN045 BKN250 09/M01 A3015 RMK AO2 SLP210 T00941006 10111 20083 50008
KLGA 220051Z 18006KT 10SM OVC034 08/01 A3018 RMK AO2 SLP218 T00830006
KLGA 220151Z 18007KT 10SM OVC035 09/00 A3017 RMK AO2 SLP216 T00890000
KLGA 220251Z 19005KT 10SM OVC038 08/00 A3017 RMK AO2 SLP217 T00830000 51007
KLGA 220351Z 17004KT 10SM OVC041 08/01 A3016 RMK AO2 SLP214 T00830011
KLGA 220451Z 08003KT 10SM OVC041 08/02 A3016 RMK AO2 RAB39E49 SLP213 P0000 T00780017 401110056